Terminal Aerodrome Forecast
Issued by NWS

Home | Current Version | Previous Version | Text Only | Print | Product List | Glossary Off
Versions: 1 2 3 4 5 6 7 8 9 10 11 12 13 14 15 16

000
FTUS43 KICT 031138
TAFRSL
TAF
KRSL 031138Z 0312/0412 VRB03KT 6SM -RASN OVC040
     FM031600 04004KT 2SM -RASN OVC015
     FM032200 10005KT P6SM OVC008
     FM040300 18004KT 1SM BR OVC003
     FM041100 28007KT P6SM SCT015=

USA.gov is the U.S. government's official web portal to all federal, state and local government web resources and services.